Terminal Aerodrome Forecast
Issued by NWS Paducah, KY

Home | Current Version | Previous Version | Graphics & Text | Print | Product List | Glossary On
Versions: 1 2 3 4 5 6 7 8 9 10 11 12 13 14 15 16 17 18 19
000
FTUS43 KPAH 271736 AAC
TAFEVV
TAF AMD
KEVV 271736Z 2718/2818 VRB03KT P6SM OVC012
     FM272000 25006KT P6SM -SHRA BKN020
     FM280300 24004KT P6SM OVC060
     FM280900 VRB03KT 3SM BR BKN008
     FM281600 35006KT 5SM BR BKN025=

USA.gov is the U.S. government's official web portal to all federal, state and local government web resources and services.